sensor_id;sensor_type;location;lat;lon;timestamp;P1;durP1;ratioP1;P2;durP2;ratioP2
71963;SDS011;59834;52.124;5.422;2022-09-02T00:00:53;0.45;;;0.10;;
71963;SDS011;59834;52.124;5.422;2022-09-02T00:03:26;0.70;;;0.10;;
71963;SDS011;59834;52.124;5.422;2022-09-02T00:05:56;0.55;;;0.10;;
71963;SDS011;59834;52.124;5.422;2022-09-02T00:08:23;2.90;;;0.17;;
71963;SDS011;59834;52.124;5.422;2022-09-02T00:10:50;1.40;;;0.20;;
71963;SDS011;59834;52.124;5.422;2022-09-02T00:13:18;2.90;;;0.20;;
71963;SDS011;59834;52.124;5.422;2022-09-02T00:15:47;2.15;;;0.20;;
71963;SDS011;59834;52.124;5.422;2022-09-02T00:18:14;0.40;;;0.10;;
71963;SDS011;59834;52.124;5.422;2022-09-02T00:20:45;0.90;;;0.25;;
71963;SDS011;59834;52.124;5.422;2022-09-02T00:23:13;2.53;;;0.10;;
71963;SDS011;59834;52.124;5.422;2022-09-02T00:25:42;0.75;;;0.20;;
71963;SDS011;59834;52.124;5.422;2022-09-02T00:28:10;1.75;;;0.20;;
71963;SDS011;59834;52.124;5.422;2022-09-02T00:30:38;2.30;;;0.20;;
71963;SDS011;59834;52.124;5.422;2022-09-02T00:33:06;1.08;;;0.28;;
71963;SDS011;59834;52.124;5.422;2022-09-02T00:35:34;2.33;;;0.20;;
71963;SDS011;59834;52.124;5.422;2022-09-02T00:38:01;1.35;;;0.30;;
71963;SDS011;59834;52.124;5.422;2022-09-02T00:40:28;2.28;;;0.75;;
71963;SDS011;59834;52.124;5.422;2022-09-02T00:42:56;1.20;;;0.20;;
71963;SDS011;59834;52.124;5.422;2022-09-02T00:45:23;3.55;;;0.10;;
71963;SDS011;59834;52.124;5.422;2022-09-02T00:47:49;0.40;;;0.10;;
71963;SDS011;59834;52.124;5.422;2022-09-02T00:50:25;5.70;;;0.20;;
71963;SDS011;59834;52.124;5.422;2022-09-02T00:52:57;0.60;;;0.20;;
71963;SDS011;59834;52.124;5.422;2022-09-02T00:55:32;1.70;;;0.20;;
71963;SDS011;59834;52.124;5.422;2022-09-02T00:58:13;4.25;;;0.20;;
71963;SDS011;59834;52.124;5.422;2022-09-02T01:00:43;1.33;;;0.20;;
71963;SDS011;59834;52.124;5.422;2022-09-02T01:03:13;4.68;;;0.10;;
71963;SDS011;59834;52.124;5.422;2022-09-02T01:05:44;1.92;;;0.20;;
71963;SDS011;59834;52.124;5.422;2022-09-02T01:08:14;2.25;;;0.10;;
71963;SDS011;59834;52.124;5.422;2022-09-02T01:10:45;0.98;;;0.20;;
71963;SDS011;59834;52.124;5.422;2022-09-02T01:13:15;0.53;;;0.10;;
71963;SDS011;59834;52.124;5.422;2022-09-02T01:15:48;0.60;;;0.20;;
71963;SDS011;59834;52.124;5.422;2022-09-02T01:18:19;0.60;;;0.20;;
71963;SDS011;59834;52.124;5.422;2022-09-02T01:20:50;0.65;;;0.20;;
71963;SDS011;59834;52.124;5.422;2022-09-02T01:23:17;0.68;;;0.10;;
71963;SDS011;59834;52.124;5.422;2022-09-02T01:25:45;0.73;;;0.20;;
71963;SDS011;59834;52.124;5.422;2022-09-02T01:28:13;3.35;;;0.20;;
71963;SDS011;59834;52.124;5.422;2022-09-02T01:30:43;1.15;;;0.20;;
71963;SDS011;59834;52.124;5.422;2022-09-02T01:33:15;3.80;;;0.10;;
71963;SDS011;59834;52.124;5.422;2022-09-02T01:35:42;1.92;;;0.10;;
71963;SDS011;59834;52.124;5.422;2022-09-02T01:38:09;6.23;;;1.30;;
71963;SDS011;59834;52.124;5.422;2022-09-02T01:40:36;0.82;;;0.10;;
71963;SDS011;59834;52.124;5.422;2022-09-02T01:43:06;0.68;;;0.10;;
71963;SDS011;59834;52.124;5.422;2022-09-02T01:45:38;0.55;;;0.10;;
71963;SDS011;59834;52.124;5.422;2022-09-02T01:48:06;0.68;;;0.20;;
71963;SDS011;59834;52.124;5.422;2022-09-02T01:50:38;1.03;;;0.20;;
71963;SDS011;59834;52.124;5.422;2022-09-02T01:53:12;5.20;;;0.30;;
71963;SDS011;59834;52.124;5.422;2022-09-02T01:55:39;2.15;;;0.20;;
71963;SDS011;59834;52.124;5.422;2022-09-02T01:58:06;1.40;;;0.10;;
71963;SDS011;59834;52.124;5.422;2022-09-02T02:00:32;1.38;;;0.20;;
71963;SDS011;59834;52.124;5.422;2022-09-02T02:02:59;2.93;;;0.20;;
71963;SDS011;59834;52.124;5.422;2022-09-02T02:05:26;4.45;;;0.30;;
71963;SDS011;59834;52.124;5.422;2022-09-02T02:07:52;0.90;;;0.20;;
71963;SDS011;59834;52.124;5.422;2022-09-02T02:10:19;2.10;;;0.10;;
71963;SDS011;59834;52.124;5.422;2022-09-02T02:12:46;1.50;;;0.10;;
71963;SDS011;59834;52.124;5.422;2022-09-02T02:15:14;2.40;;;0.20;;
71963;SDS011;59834;52.124;5.422;2022-09-02T02:17:43;3.03;;;0.40;;
71963;SDS011;59834;52.124;5.422;2022-09-02T02:20:11;1.08;;;0.20;;
71963;SDS011;59834;52.124;5.422;2022-09-02T02:22:40;0.60;;;0.20;;
71963;SDS011;59834;52.124;5.422;2022-09-02T02:25:08;0.47;;;0.10;;
71963;SDS011;59834;52.124;5.422;2022-09-02T02:27:35;0.50;;;0.20;;
71963;SDS011;59834;52.124;5.422;2022-09-02T02:30:03;1.88;;;0.30;;
71963;SDS011;59834;52.124;5.422;2022-09-02T02:32:31;2.75;;;0.20;;
71963;SDS011;59834;52.124;5.422;2022-09-02T02:34:57;0.52;;;0.10;;
71963;SDS011;59834;52.124;5.422;2022-09-02T02:37:24;1.77;;;0.20;;
71963;SDS011;59834;52.124;5.422;2022-09-02T02:39:51;0.63;;;0.20;;
71963;SDS011;59834;52.124;5.422;2022-09-02T02:42:18;2.70;;;0.30;;
71963;SDS011;59834;52.124;5.422;2022-09-02T02:44:45;1.02;;;0.20;;
71963;SDS011;59834;52.124;5.422;2022-09-02T02:47:12;0.73;;;0.20;;
71963;SDS011;59834;52.124;5.422;2022-09-02T02:49:39;0.57;;;0.13;;
71963;SDS011;59834;52.124;5.422;2022-09-02T02:52:07;1.00;;;0.20;;
71963;SDS011;59834;52.124;5.422;2022-09-02T02:54:34;2.08;;;0.10;;
71963;SDS011;59834;52.124;5.422;2022-09-02T02:57:02;0.95;;;0.30;;
71963;SDS011;59834;52.124;5.422;2022-09-02T02:59:29;2.95;;;0.17;;
71963;SDS011;59834;52.124;5.422;2022-09-02T03:01:57;3.50;;;0.20;;
71963;SDS011;59834;52.124;5.422;2022-09-02T03:04:23;1.23;;;0.20;;
71963;SDS011;59834;52.124;5.422;2022-09-02T03:06:50;7.00;;;0.20;;
71963;SDS011;59834;52.124;5.422;2022-09-02T03:09:16;1.45;;;0.10;;
71963;SDS011;59834;52.124;5.422;2022-09-02T03:11:46;1.63;;;0.20;;
71963;SDS011;59834;52.124;5.422;2022-09-02T03:14:13;0.90;;;0.13;;
71963;SDS011;59834;52.124;5.422;2022-09-02T03:16:39;0.50;;;0.10;;
71963;SDS011;59834;52.124;5.422;2022-09-02T03:19:06;0.85;;;0.20;;
71963;SDS011;59834;52.124;5.422;2022-09-02T03:21:33;1.10;;;0.20;;
71963;SDS011;59834;52.124;5.422;2022-09-02T03:24:04;1.17;;;0.20;;
71963;SDS011;59834;52.124;5.422;2022-09-02T03:26:31;2.28;;;0.22;;
71963;SDS011;59834;52.124;5.422;2022-09-02T03:28:59;1.13;;;0.20;;
71963;SDS011;59834;52.124;5.422;2022-09-02T03:31:26;4.10;;;0.20;;
71963;SDS011;59834;52.124;5.422;2022-09-02T03:33:53;0.45;;;0.10;;
71963;SDS011;59834;52.124;5.422;2022-09-02T03:38:51;0.85;;;0.20;;
71963;SDS011;59834;52.124;5.422;2022-09-02T03:41:19;3.83;;;0.30;;
71963;SDS011;59834;52.124;5.422;2022-09-02T03:43:46;1.17;;;0.40;;
71963;SDS011;59834;52.124;5.422;2022-09-02T03:46:12;0.88;;;0.20;;
71963;SDS011;59834;52.124;5.422;2022-09-02T03:48:39;0.70;;;0.20;;
71963;SDS011;59834;52.124;5.422;2022-09-02T03:51:06;1.73;;;0.30;;
71963;SDS011;59834;52.124;5.422;2022-09-02T03:53:33;3.10;;;0.50;;
71963;SDS011;59834;52.124;5.422;2022-09-02T03:56:07;1.77;;;0.20;;
71963;SDS011;59834;52.124;5.422;2022-09-02T03:58:38;4.07;;;0.55;;
71963;SDS011;59834;52.124;5.422;2022-09-02T04:01:06;1.92;;;0.20;;
71963;SDS011;59834;52.124;5.422;2022-09-02T04:03:33;2.67;;;0.20;;
71963;SDS011;59834;52.124;5.422;2022-09-02T04:05:59;2.80;;;0.13;;
71963;SDS011;59834;52.124;5.422;2022-09-02T04:08:26;4.93;;;0.40;;
71963;SDS011;59834;52.124;5.422;2022-09-02T04:10:52;1.42;;;0.17;;
71963;SDS011;59834;52.124;5.422;2022-09-02T04:13:21;4.93;;;0.30;;
71963;SDS011;59834;52.124;5.422;2022-09-02T04:15:48;0.65;;;0.28;;
71963;SDS011;59834;52.124;5.422;2022-09-02T04:18:15;2.00;;;0.20;;
71963;SDS011;59834;52.124;5.422;2022-09-02T04:20:42;0.80;;;0.10;;
71963;SDS011;59834;52.124;5.422;2022-09-02T04:23:10;1.35;;;0.10;;
71963;SDS011;59834;52.124;5.422;2022-09-02T04:25:40;3.53;;;0.20;;
71963;SDS011;59834;52.124;5.422;2022-09-02T04:28:08;0.63;;;0.20;;
71963;SDS011;59834;52.124;5.422;2022-09-02T04:30:39;1.50;;;0.30;;
71963;SDS011;59834;52.124;5.422;2022-09-02T04:33:06;0.70;;;0.20;;
71963;SDS011;59834;52.124;5.422;2022-09-02T04:35:33;2.45;;;0.20;;
71963;SDS011;59834;52.124;5.422;2022-09-02T04:38:01;1.08;;;0.47;;
71963;SDS011;59834;52.124;5.422;2022-09-02T04:40:28;0.98;;;0.20;;
71963;SDS011;59834;52.124;5.422;2022-09-02T04:42:54;0.53;;;0.10;;
71963;SDS011;59834;52.124;5.422;2022-09-02T04:45:21;0.82;;;0.20;;
71963;SDS011;59834;52.124;5.422;2022-09-02T04:47:54;1.98;;;0.20;;
71963;SDS011;59834;52.124;5.422;2022-09-02T04:50:20;1.52;;;0.45;;
71963;SDS011;59834;52.124;5.422;2022-09-02T04:52:47;0.50;;;0.20;;
71963;SDS011;59834;52.124;5.422;2022-09-02T04:55:13;3.70;;;0.20;;
71963;SDS011;59834;52.124;5.422;2022-09-02T04:57:40;4.80;;;0.17;;
71963;SDS011;59834;52.124;5.422;2022-09-02T05:00:07;0.70;;;0.20;;
71963;SDS011;59834;52.124;5.422;2022-09-02T05:02:34;3.17;;;0.30;;
71963;SDS011;59834;52.124;5.422;2022-09-02T05:05:01;0.93;;;0.20;;
71963;SDS011;59834;52.124;5.422;2022-09-02T05:07:27;5.10;;;0.20;;
71963;SDS011;59834;52.124;5.422;2022-09-02T05:09:57;0.75;;;0.20;;
71963;SDS011;59834;52.124;5.422;2022-09-02T05:12:24;3.28;;;0.30;;
71963;SDS011;59834;52.124;5.422;2022-09-02T05:14:53;2.53;;;0.20;;
71963;SDS011;59834;52.124;5.422;2022-09-02T05:17:22;3.47;;;0.30;;
71963;SDS011;59834;52.124;5.422;2022-09-02T05:19:48;4.03;;;0.30;;
71963;SDS011;59834;52.124;5.422;2022-09-02T05:22:15;4.53;;;0.77;;
71963;SDS011;59834;52.124;5.422;2022-09-02T05:24:42;0.95;;;0.20;;
71963;SDS011;59834;52.124;5.422;2022-09-02T05:27:09;5.38;;;0.30;;
71963;SDS011;59834;52.124;5.422;2022-09-02T05:29:35;1.48;;;0.30;;
71963;SDS011;59834;52.124;5.422;2022-09-02T05:32:02;1.13;;;0.20;;
71963;SDS011;59834;52.124;5.422;2022-09-02T05:34:29;1.80;;;0.30;;
71963;SDS011;59834;52.124;5.422;2022-09-02T05:36:58;1.73;;;0.30;;
71963;SDS011;59834;52.124;5.422;2022-09-02T05:39:25;4.63;;;0.20;;
71963;SDS011;59834;52.124;5.422;2022-09-02T05:41:51;4.20;;;0.20;;
71963;SDS011;59834;52.124;5.422;2022-09-02T05:44:18;6.23;;;0.60;;
71963;SDS011;59834;52.124;5.422;2022-09-02T05:46:45;1.38;;;0.20;;
71963;SDS011;59834;52.124;5.422;2022-09-02T05:49:14;2.33;;;0.20;;
71963;SDS011;59834;52.124;5.422;2022-09-02T05:51:53;2.80;;;0.30;;
71963;SDS011;59834;52.124;5.422;2022-09-02T05:54:26;4.13;;;0.20;;
71963;SDS011;59834;52.124;5.422;2022-09-02T05:56:56;0.53;;;0.20;;
71963;SDS011;59834;52.124;5.422;2022-09-02T05:59:26;2.30;;;0.20;;
71963;SDS011;59834;52.124;5.422;2022-09-02T06:01:54;1.80;;;0.20;;
71963;SDS011;59834;52.124;5.422;2022-09-02T06:04:21;0.68;;;0.20;;
71963;SDS011;59834;52.124;5.422;2022-09-02T06:06:48;1.40;;;0.20;;
71963;SDS011;59834;52.124;5.422;2022-09-02T06:09:17;1.07;;;0.20;;
71963;SDS011;59834;52.124;5.422;2022-09-02T06:11:46;8.73;;;0.30;;
71963;SDS011;59834;52.124;5.422;2022-09-02T06:14:17;2.58;;;0.20;;
71963;SDS011;59834;52.124;5.422;2022-09-02T06:16:47;1.13;;;0.10;;
71963;SDS011;59834;52.124;5.422;2022-09-02T06:19:15;1.38;;;0.20;;
71963;SDS011;59834;52.124;5.422;2022-09-02T06:21:46;1.97;;;0.30;;
71963;SDS011;59834;52.124;5.422;2022-09-02T06:24:13;6.57;;;0.20;;
71963;SDS011;59834;52.124;5.422;2022-09-02T06:26:40;2.28;;;0.20;;
71963;SDS011;59834;52.124;5.422;2022-09-02T06:29:07;0.98;;;0.30;;
71963;SDS011;59834;52.124;5.422;2022-09-02T06:31:35;3.17;;;0.35;;
71963;SDS011;59834;52.124;5.422;2022-09-02T06:34:02;4.37;;;1.23;;
71963;SDS011;59834;52.124;5.422;2022-09-02T06:36:29;3.25;;;0.32;;
71963;SDS011;59834;52.124;5.422;2022-09-02T06:38:57;0.90;;;0.20;;
71963;SDS011;59834;52.124;5.422;2022-09-02T06:41:26;3.47;;;0.30;;
71963;SDS011;59834;52.124;5.422;2022-09-02T06:43:56;2.58;;;0.70;;
71963;SDS011;59834;52.124;5.422;2022-09-02T06:46:29;3.37;;;0.20;;
71963;SDS011;59834;52.124;5.422;2022-09-02T06:48:58;3.88;;;0.40;;
71963;SDS011;59834;52.124;5.422;2022-09-02T06:53:54;4.97;;;0.30;;
71963;SDS011;59834;52.124;5.422;2022-09-02T06:56:22;4.43;;;0.30;;
71963;SDS011;59834;52.124;5.422;2022-09-02T06:58:49;1.27;;;0.23;;
71963;SDS011;59834;52.124;5.422;2022-09-02T07:01:17;1.58;;;0.30;;
71963;SDS011;59834;52.124;5.422;2022-09-02T07:03:47;1.95;;;0.20;;
71963;SDS011;59834;52.124;5.422;2022-09-02T07:06:34;0.70;;;0.22;;
71963;SDS011;59834;52.124;5.422;2022-09-02T07:09:06;5.57;;;0.30;;
71963;SDS011;59834;52.124;5.422;2022-09-02T07:11:35;2.83;;;0.20;;
71963;SDS011;59834;52.124;5.422;2022-09-02T07:14:01;1.67;;;0.35;;
71963;SDS011;59834;52.124;5.422;2022-09-02T07:16:29;24.13;;;0.75;;
71963;SDS011;59834;52.124;5.422;2022-09-02T07:18:59;3.95;;;0.40;;
71963;SDS011;59834;52.124;5.422;2022-09-02T07:21:26;2.08;;;0.20;;
71963;SDS011;59834;52.124;5.422;2022-09-02T07:23:54;2.10;;;0.20;;
71963;SDS011;59834;52.124;5.422;2022-09-02T07:26:23;2.30;;;0.20;;
71963;SDS011;59834;52.124;5.422;2022-09-02T07:28:51;1.45;;;0.30;;
71963;SDS011;59834;52.124;5.422;2022-09-02T07:31:18;8.35;;;0.50;;
71963;SDS011;59834;52.124;5.422;2022-09-02T07:33:45;2.03;;;0.20;;
71963;SDS011;59834;52.124;5.422;2022-09-02T07:36:15;3.80;;;0.20;;
71963;SDS011;59834;52.124;5.422;2022-09-02T07:38:42;4.32;;;0.38;;
71963;SDS011;59834;52.124;5.422;2022-09-02T07:41:08;1.88;;;0.30;;
71963;SDS011;59834;52.124;5.422;2022-09-02T07:43:36;4.93;;;0.73;;
71963;SDS011;59834;52.124;5.422;2022-09-02T07:46:06;1.02;;;0.30;;
71963;SDS011;59834;52.124;5.422;2022-09-02T07:48:33;6.17;;;0.40;;
71963;SDS011;59834;52.124;5.422;2022-09-02T07:51:00;0.82;;;0.20;;
71963;SDS011;59834;52.124;5.422;2022-09-02T07:53:27;4.28;;;0.30;;
71963;SDS011;59834;52.124;5.422;2022-09-02T07:55:54;0.80;;;0.30;;
71963;SDS011;59834;52.124;5.422;2022-09-02T07:58:21;2.40;;;0.47;;
71963;SDS011;59834;52.124;5.422;2022-09-02T08:00:48;2.10;;;0.30;;
71963;SDS011;59834;52.124;5.422;2022-09-02T08:03:16;4.80;;;0.50;;
71963;SDS011;59834;52.124;5.422;2022-09-02T08:05:44;0.75;;;0.20;;
71963;SDS011;59834;52.124;5.422;2022-09-02T08:08:13;1.95;;;0.20;;
71963;SDS011;59834;52.124;5.422;2022-09-02T08:10:41;1.95;;;0.32;;
71963;SDS011;59834;52.124;5.422;2022-09-02T08:13:08;5.97;;;0.33;;
71963;SDS011;59834;52.124;5.422;2022-09-02T08:15:36;4.10;;;0.40;;
71963;SDS011;59834;52.124;5.422;2022-09-02T08:18:03;4.35;;;0.40;;
71963;SDS011;59834;52.124;5.422;2022-09-02T08:20:30;5.05;;;0.47;;
71963;SDS011;59834;52.124;5.422;2022-09-02T08:22:57;3.45;;;0.22;;
71963;SDS011;59834;52.124;5.422;2022-09-02T08:25:37;3.30;;;0.40;;
71963;SDS011;59834;52.124;5.422;2022-09-02T08:28:04;1.05;;;0.20;;
71963;SDS011;59834;52.124;5.422;2022-09-02T08:30:30;2.33;;;0.30;;
71963;SDS011;59834;52.124;5.422;2022-09-02T08:32:57;2.78;;;0.73;;
71963;SDS011;59834;52.124;5.422;2022-09-02T08:35:24;4.00;;;0.30;;
71963;SDS011;59834;52.124;5.422;2022-09-02T08:37:50;2.43;;;0.93;;
71963;SDS011;59834;52.124;5.422;2022-09-02T08:40:18;3.90;;;0.73;;
71963;SDS011;59834;52.124;5.422;2022-09-02T08:42:53;3.58;;;0.63;;
71963;SDS011;59834;52.124;5.422;2022-09-02T08:48:37;1.35;;;0.40;;
71963;SDS011;59834;52.124;5.422;2022-09-02T08:50:48;3.00;;;0.50;;
71963;SDS011;59834;52.124;5.422;2022-09-02T08:56:03;4.88;;;0.40;;
71963;SDS011;59834;52.124;5.422;2022-09-02T08:58:50;4.47;;;0.60;;
71963;SDS011;59834;52.124;5.422;2022-09-02T09:01:33;3.70;;;0.60;;
71963;SDS011;59834;52.124;5.422;2022-09-02T09:07:11;6.60;;;0.47;;
71963;SDS011;59834;52.124;5.422;2022-09-02T09:15:54;3.10;;;0.82;;
71963;SDS011;59834;52.124;5.422;2022-09-02T09:18:43;3.07;;;0.80;;
71963;SDS011;59834;52.124;5.422;2022-09-02T09:21:19;5.30;;;1.40;;
71963;SDS011;59834;52.124;5.422;2022-09-02T09:23:51;3.88;;;0.88;;
71963;SDS011;59834;52.124;5.422;2022-09-02T09:26:25;4.07;;;0.50;;
71963;SDS011;59834;52.124;5.422;2022-09-02T09:28:54;1.58;;;0.50;;
71963;SDS011;59834;52.124;5.422;2022-09-02T09:31:23;4.73;;;0.60;;
71963;SDS011;59834;52.124;5.422;2022-09-02T09:34:03;2.13;;;0.40;;
71963;SDS011;59834;52.124;5.422;2022-09-02T09:39:25;31.13;;;1.30;;
71963;SDS011;59834;52.124;5.422;2022-09-02T09:41:56;6.15;;;0.70;;
71963;SDS011;59834;52.124;5.422;2022-09-02T09:44:44;1.93;;;0.40;;
71963;SDS011;59834;52.124;5.422;2022-09-02T09:47:22;3.30;;;0.63;;
71963;SDS011;59834;52.124;5.422;2022-09-02T09:49:51;1.38;;;0.55;;
71963;SDS011;59834;52.124;5.422;2022-09-02T09:52:29;3.20;;;1.00;;
71963;SDS011;59834;52.124;5.422;2022-09-02T09:55:13;1.85;;;0.43;;
71963;SDS011;59834;52.124;5.422;2022-09-02T09:57:50;2.67;;;0.77;;
71963;SDS011;59834;52.124;5.422;2022-09-02T10:00:19;2.63;;;0.68;;
71963;SDS011;59834;52.124;5.422;2022-09-02T10:02:58;7.80;;;0.82;;
71963;SDS011;59834;52.124;5.422;2022-09-02T10:05:30;3.63;;;0.65;;
71963;SDS011;59834;52.124;5.422;2022-09-02T10:08:06;2.05;;;0.57;;
71963;SDS011;59834;52.124;5.422;2022-09-02T10:10:56;3.83;;;0.67;;
71963;SDS011;59834;52.124;5.422;2022-09-02T10:13:26;3.88;;;0.63;;
71963;SDS011;59834;52.124;5.422;2022-09-02T10:18:52;3.92;;;0.63;;
71963;SDS011;59834;52.124;5.422;2022-09-02T10:24:24;2.03;;;0.70;;
71963;SDS011;59834;52.124;5.422;2022-09-02T10:27:10;2.53;;;0.80;;
71963;SDS011;59834;52.124;5.422;2022-09-02T10:43:58;2.53;;;0.68;;
71963;SDS011;59834;52.124;5.422;2022-09-02T10:46:29;3.90;;;0.93;;
71963;SDS011;59834;52.124;5.422;2022-09-02T10:49:13;1.83;;;0.93;;
71963;SDS011;59834;52.124;5.422;2022-09-02T10:54:58;7.03;;;0.77;;
71963;SDS011;59834;52.124;5.422;2022-09-02T11:00:18;2.08;;;0.85;;
71963;SDS011;59834;52.124;5.422;2022-09-02T11:02:47;2.58;;;0.77;;
71963;SDS011;59834;52.124;5.422;2022-09-02T11:08:37;5.07;;;0.77;;
71963;SDS011;59834;52.124;5.422;2022-09-02T11:11:18;4.82;;;0.70;;
71963;SDS011;59834;52.124;5.422;2022-09-02T11:16:51;2.53;;;0.77;;
71963;SDS011;59834;52.124;5.422;2022-09-02T11:19:32;4.73;;;0.53;;
71963;SDS011;59834;52.124;5.422;2022-09-02T11:22:02;2.35;;;0.93;;
71963;SDS011;59834;52.124;5.422;2022-09-02T11:30:03;2.38;;;0.57;;
71963;SDS011;59834;52.124;5.422;2022-09-02T11:32:43;2.37;;;0.77;;
71963;SDS011;59834;52.124;5.422;2022-09-02T11:35:32;2.63;;;0.80;;
71963;SDS011;59834;52.124;5.422;2022-09-02T11:38:17;3.72;;;1.77;;
71963;SDS011;59834;52.124;5.422;2022-09-02T11:44:19;6.63;;;0.70;;
71963;SDS011;59834;52.124;5.422;2022-09-02T11:47:29;2.30;;;0.50;;
71963;SDS011;59834;52.124;5.422;2022-09-02T11:50:08;2.00;;;0.63;;
71963;SDS011;59834;52.124;5.422;2022-09-02T11:58:42;1.17;;;0.73;;
71963;SDS011;59834;52.124;5.422;2022-09-02T12:09:53;1.63;;;0.50;;
71963;SDS011;59834;52.124;5.422;2022-09-02T12:17:38;6.97;;;0.88;;
71963;SDS011;59834;52.124;5.422;2022-09-02T12:23:02;2.10;;;0.63;;
71963;SDS011;59834;52.124;5.422;2022-09-02T12:33:30;4.07;;;1.00;;
71963;SDS011;59834;52.124;5.422;2022-09-02T12:36:02;4.47;;;0.95;;
71963;SDS011;59834;52.124;5.422;2022-09-02T12:38:34;2.17;;;0.90;;
71963;SDS011;59834;52.124;5.422;2022-09-02T12:43:42;4.50;;;0.95;;
71963;SDS011;59834;52.124;5.422;2022-09-02T12:49:04;1.35;;;0.60;;
71963;SDS011;59834;52.124;5.422;2022-09-02T12:51:53;15.18;;;0.98;;
71963;SDS011;59834;52.124;5.422;2022-09-02T12:54:28;2.03;;;0.80;;
71963;SDS011;59834;52.124;5.422;2022-09-02T12:57:01;2.92;;;0.68;;
71963;SDS011;59834;52.124;5.422;2022-09-02T12:59:30;1.30;;;0.70;;
71963;SDS011;59834;52.124;5.422;2022-09-02T13:11:21;1.70;;;0.60;;
71963;SDS011;59834;52.124;5.422;2022-09-02T13:16:37;1.45;;;0.80;;
71963;SDS011;59834;52.124;5.422;2022-09-02T13:19:21;10.82;;;0.93;;
71963;SDS011;59834;52.124;5.422;2022-09-02T13:25:06;2.65;;;0.60;;
71963;SDS011;59834;52.124;5.422;2022-09-02T13:33:31;2.85;;;1.00;;
71963;SDS011;59834;52.124;5.422;2022-09-02T13:35:58;2.70;;;0.63;;
71963;SDS011;59834;52.124;5.422;2022-09-02T13:38:26;4.60;;;0.88;;
71963;SDS011;59834;52.124;5.422;2022-09-02T13:40:54;3.50;;;0.70;;
71963;SDS011;59834;52.124;5.422;2022-09-02T13:43:22;1.08;;;0.60;;
71963;SDS011;59834;52.124;5.422;2022-09-02T13:45:52;1.48;;;0.63;;
71963;SDS011;59834;52.124;5.422;2022-09-02T13:48:25;1.20;;;0.50;;
71963;SDS011;59834;52.124;5.422;2022-09-02T13:51:01;3.00;;;0.65;;
71963;SDS011;59834;52.124;5.422;2022-09-02T13:53:37;1.52;;;0.65;;
71963;SDS011;59834;52.124;5.422;2022-09-02T13:56:27;1.85;;;0.55;;
71963;SDS011;59834;52.124;5.422;2022-09-02T13:58:56;1.83;;;0.60;;
71963;SDS011;59834;52.124;5.422;2022-09-02T14:03:58;1.55;;;0.70;;
71963;SDS011;59834;52.124;5.422;2022-09-02T14:06:34;3.72;;;0.93;;
71963;SDS011;59834;52.124;5.422;2022-09-02T14:09:05;5.18;;;0.90;;
71963;SDS011;59834;52.124;5.422;2022-09-02T14:11:40;2.40;;;0.60;;
71963;SDS011;59834;52.124;5.422;2022-09-02T14:14:18;4.60;;;0.90;;
71963;SDS011;59834;52.124;5.422;2022-09-02T14:16:47;2.70;;;1.05;;
71963;SDS011;59834;52.124;5.422;2022-09-02T14:21:47;1.95;;;0.77;;
71963;SDS011;59834;52.124;5.422;2022-09-02T14:24:19;3.72;;;0.60;;
71963;SDS011;59834;52.124;5.422;2022-09-02T14:26:48;5.13;;;0.90;;
71963;SDS011;59834;52.124;5.422;2022-09-02T14:29:17;1.42;;;0.85;;
71963;SDS011;59834;52.124;5.422;2022-09-02T14:31:45;2.17;;;0.95;;
71963;SDS011;59834;52.124;5.422;2022-09-02T14:34:30;1.42;;;0.80;;
71963;SDS011;59834;52.124;5.422;2022-09-02T14:36:59;5.75;;;1.30;;
71963;SDS011;59834;52.124;5.422;2022-09-02T14:42:26;1.40;;;0.60;;
71963;SDS011;59834;52.124;5.422;2022-09-02T14:44:54;2.55;;;0.95;;
71963;SDS011;59834;52.124;5.422;2022-09-02T14:47:24;2.45;;;1.00;;
71963;SDS011;59834;52.124;5.422;2022-09-02T14:49:53;2.67;;;1.52;;
71963;SDS011;59834;52.124;5.422;2022-09-02T14:54:50;2.78;;;0.80;;
71963;SDS011;59834;52.124;5.422;2022-09-02T14:59:50;1.60;;;0.75;;
71963;SDS011;59834;52.124;5.422;2022-09-02T15:04:52;7.03;;;1.10;;
71963;SDS011;59834;52.124;5.422;2022-09-02T15:07:24;2.30;;;0.90;;
71963;SDS011;59834;52.124;5.422;2022-09-02T15:09:52;1.90;;;0.90;;
71963;SDS011;59834;52.124;5.422;2022-09-02T15:12:20;3.00;;;0.63;;
71963;SDS011;59834;52.124;5.422;2022-09-02T15:14:55;2.13;;;1.08;;
71963;SDS011;59834;52.124;5.422;2022-09-02T15:17:22;1.83;;;1.03;;
71963;SDS011;59834;52.124;5.422;2022-09-02T15:19:49;1.70;;;0.80;;
71963;SDS011;59834;52.124;5.422;2022-09-02T15:22:16;3.05;;;1.00;;
71963;SDS011;59834;52.124;5.422;2022-09-02T15:24:43;3.67;;;0.90;;
71963;SDS011;59834;52.124;5.422;2022-09-02T15:27:10;4.47;;;1.00;;
71963;SDS011;59834;52.124;5.422;2022-09-02T15:29:36;6.03;;;0.93;;
71963;SDS011;59834;52.124;5.422;2022-09-02T15:32:03;2.75;;;0.88;;
71963;SDS011;59834;52.124;5.422;2022-09-02T15:34:31;2.47;;;0.90;;
71963;SDS011;59834;52.124;5.422;2022-09-02T15:37:00;4.05;;;0.95;;
71963;SDS011;59834;52.124;5.422;2022-09-02T15:39:27;2.40;;;1.15;;
71963;SDS011;59834;52.124;5.422;2022-09-02T15:41:54;5.97;;;2.13;;
71963;SDS011;59834;52.124;5.422;2022-09-02T15:44:21;2.90;;;0.90;;
71963;SDS011;59834;52.124;5.422;2022-09-02T15:46:51;1.83;;;0.90;;
71963;SDS011;59834;52.124;5.422;2022-09-02T15:49:19;5.22;;;1.00;;
71963;SDS011;59834;52.124;5.422;2022-09-02T15:51:46;2.67;;;0.60;;
71963;SDS011;59834;52.124;5.422;2022-09-02T15:54:21;1.30;;;0.70;;
71963;SDS011;59834;52.124;5.422;2022-09-02T15:56:53;4.72;;;0.85;;
71963;SDS011;59834;52.124;5.422;2022-09-02T15:59:21;1.85;;;0.70;;
71963;SDS011;59834;52.124;5.422;2022-09-02T16:01:49;3.97;;;0.50;;
71963;SDS011;59834;52.124;5.422;2022-09-02T16:04:17;1.13;;;0.57;;
71963;SDS011;59834;52.124;5.422;2022-09-02T16:06:44;3.90;;;0.60;;
71963;SDS011;59834;52.124;5.422;2022-09-02T16:09:17;4.10;;;0.70;;
71963;SDS011;59834;52.124;5.422;2022-09-02T16:11:45;1.20;;;0.60;;
71963;SDS011;59834;52.124;5.422;2022-09-02T16:14:14;2.88;;;0.82;;
71963;SDS011;59834;52.124;5.422;2022-09-02T16:16:46;3.70;;;0.90;;
71963;SDS011;59834;52.124;5.422;2022-09-02T16:19:14;1.73;;;0.70;;
71963;SDS011;59834;52.124;5.422;2022-09-02T16:21:41;1.83;;;0.70;;
71963;SDS011;59834;52.124;5.422;2022-09-02T16:24:08;1.83;;;0.80;;
71963;SDS011;59834;52.124;5.422;2022-09-02T16:26:36;2.53;;;0.95;;
71963;SDS011;59834;52.124;5.422;2022-09-02T16:29:05;2.63;;;0.80;;
71963;SDS011;59834;52.124;5.422;2022-09-02T16:31:34;1.93;;;0.80;;
71963;SDS011;59834;52.124;5.422;2022-09-02T16:34:07;2.17;;;0.93;;
71963;SDS011;59834;52.124;5.422;2022-09-02T16:36:35;12.63;;;1.13;;
71963;SDS011;59834;52.124;5.422;2022-09-02T16:39:04;18.05;;;1.55;;
71963;SDS011;59834;52.124;5.422;2022-09-02T16:44:03;8.50;;;1.63;;
71963;SDS011;59834;52.124;5.422;2022-09-02T16:46:32;4.63;;;1.02;;
71963;SDS011;59834;52.124;5.422;2022-09-02T16:49:00;3.10;;;1.20;;
71963;SDS011;59834;52.124;5.422;2022-09-02T16:51:27;5.88;;;0.90;;
71963;SDS011;59834;52.124;5.422;2022-09-02T16:53:56;3.80;;;0.77;;
71963;SDS011;59834;52.124;5.422;2022-09-02T16:56:24;4.27;;;0.70;;
71963;SDS011;59834;52.124;5.422;2022-09-02T16:58:52;6.25;;;0.60;;
71963;SDS011;59834;52.124;5.422;2022-09-02T17:01:19;2.40;;;0.90;;
71963;SDS011;59834;52.124;5.422;2022-09-02T17:03:47;3.40;;;0.60;;
71963;SDS011;59834;52.124;5.422;2022-09-02T17:06:16;3.22;;;0.70;;
71963;SDS011;59834;52.124;5.422;2022-09-02T17:08:43;8.13;;;0.97;;
71963;SDS011;59834;52.124;5.422;2022-09-02T17:13:49;1.23;;;0.55;;
71963;SDS011;59834;52.124;5.422;2022-09-02T17:16:19;1.30;;;0.70;;
71963;SDS011;59834;52.124;5.422;2022-09-02T17:18:47;2.10;;;0.80;;
71963;SDS011;59834;52.124;5.422;2022-09-02T17:21:16;4.37;;;1.20;;
71963;SDS011;59834;52.124;5.422;2022-09-02T17:23:55;2.42;;;0.70;;
71963;SDS011;59834;52.124;5.422;2022-09-02T17:26:23;1.00;;;0.60;;